Dades meteomassalio
Diari Summary for Febrer 7, 2018 Units:  Metric    English   Both
« Previous Day
Next Day »
Diari Semanal Mensual Anual Personalitzat
  Maxima: Minima: Mijana:
Temperatura: -17.8 °C -17.4 °C -16 °C
Rosada: -17.8 °C -19.7 °C -18.7 °C
Humitat: Humidity % 58 % 71 %
Velocitat del vent: 0 km/h 26.9 km/h 42.5 km/h
Racha vent: 0 km/h - -
Vent:- - NW
Pressio: 0 hPa 34337.4 hPa -
Pluja: 0 mm    
Historical Graphs
 
 
Tabular Data for Febrer 7, 2018
Time Temperature Dew Point Pressure Wind Wind Speed Wind Gust Humidity Rainfall Rate (Hourly) solar Conditions
-17.8 °C -17.8 °C 0 hPa Calm     Humidity % 0 mm SolarRadiationWatts/m^2 W/m2 Conditions
00:00 -16.8 °C -18.8 °C 34347.6 hPa WNW 28.5 km/h 28.5 km/h 77 % 0 mm 0.0 W/m2 RA
00:05 -16.8 °C -18.9 °C 34347.6 hPa WNW 29.8 km/h 29.8 km/h 76 % 0 mm 0.0 W/m2 CLR
00:10 -16.8 °C -18.9 °C 34347.6 hPa NW 35.7 km/h 35.7 km/h 76 % 0 mm 0.0 W/m2 CLR
00:15 -16.8 °C -18.9 °C 34347.6 hPa WNW 26.9 km/h 26.9 km/h 76 % 0 mm 0.0 W/m2 CLR
00:20 -16.8 °C -18.8 °C 34347.6 hPa WNW 38.8 km/h 38.8 km/h 77 % 0 mm 0.0 W/m2 CLR
00:25 -16.8 °C -18.8 °C 34347.6 hPa West 47.6 km/h 47.6 km/h 77 % 0 mm 0.0 W/m2 CLR
00:30 -16.8 °C -18.8 °C 34347.6 hPa West 36.2 km/h 36.2 km/h 77 % 0 mm 0.0 W/m2 CLR
00:35 -16.8 °C -18.8 °C 34347.6 hPa West 29.8 km/h 29.8 km/h 78 % 0 mm 0.0 W/m2 CLR
00:40 -16.8 °C -18.8 °C 34347.6 hPa WNW 41.7 km/h 41.7 km/h 78 % 0 mm 0.0 W/m2 CLR
00:45 -16.8 °C -18.8 °C 34347.6 hPa WNW 35.7 km/h 35.7 km/h 77 % 0 mm 0.0 W/m2 CLR
00:50 -16.8 °C -18.8 °C 34347.6 hPa WNW 38.8 km/h 38.8 km/h 78 % 0 mm 0.0 W/m2 CLR
00:55 -16.8 °C -18.8 °C 34347.6 hPa WNW 33.6 km/h 33.6 km/h 78 % 0 mm 0.0 W/m2 CLR
01:00 -16.8 °C -18.8 °C 34347.6 hPa West 44.7 km/h 44.7 km/h 78 % 0 mm 0.0 W/m2 CLR
01:05 -16.8 °C -18.8 °C 34347.6 hPa WNW 41.7 km/h 41.7 km/h 78 % 0 mm 0.0 W/m2 CLR
01:10 -16.8 °C -18.8 °C 34347.6 hPa WNW 32.8 km/h 32.8 km/h 78 % 0 mm 0.0 W/m2 CLR
01:15 -16.8 °C -18.7 °C 34347.6 hPa WNW 41.7 km/h 41.7 km/h 79 % 0 mm 0.0 W/m2 CLR
01:20 -16.8 °C -18.7 °C 34347.6 hPa NW 36.2 km/h 36.2 km/h 79 % 0 mm 0.0 W/m2 CLR
01:25 -16.8 °C -18.7 °C 34347.6 hPa NW 41.7 km/h 41.7 km/h 79 % 0 mm 0.0 W/m2 CLR
01:30 -16.8 °C -18.8 °C 34347.6 hPa NW 41.7 km/h 41.7 km/h 78 % 0 mm 0.0 W/m2 CLR
01:35 -16.8 °C -18.8 °C 34347.6 hPa WNW 41.4 km/h 41.4 km/h 78 % 0 mm 0.0 W/m2 CLR
01:40 -16.8 °C -18.7 °C 34347.6 hPa WNW 41.4 km/h 41.4 km/h 79 % 0 mm 0.0 W/m2 CLR
01:45 -16.8 °C -18.8 °C 34337.4 hPa NW 50.7 km/h 50.7 km/h 78 % 0 mm 0.0 W/m2 CLR
01:50 -16.8 °C -18.8 °C 34347.6 hPa NW 47.6 km/h 47.6 km/h 78 % 0 mm 0.0 W/m2 CLR
01:55 -16.8 °C -18.8 °C 34347.6 hPa NW 47.6 km/h 47.6 km/h 78 % 0 mm 0.0 W/m2 CLR
02:00 -16.8 °C -18.8 °C 34347.6 hPa WNW 38.8 km/h 38.8 km/h 78 % 0 mm 0.0 W/m2 CLR
02:05 -16.8 °C -18.8 °C 34347.6 hPa NW 35.7 km/h 35.7 km/h 78 % 0 mm 0.0 W/m2 CLR
02:11 -16.8 °C -18.7 °C 34347.6 hPa NW 33.6 km/h 33.6 km/h 79 % 0 mm 0.0 W/m2 CLR
02:16 -16.8 °C -18.7 °C 34347.6 hPa WNW 35.7 km/h 35.7 km/h 79 % 0 mm 0.0 W/m2 CLR
02:21 -16.8 °C -18.7 °C 34347.6 hPa NW 41.7 km/h 41.7 km/h 79 % 0 mm 0.0 W/m2 CLR
02:26 -16.8 °C -18.7 °C 34347.6 hPa WNW 41.7 km/h 41.7 km/h 79 % 0 mm 0.0 W/m2 CLR
02:31 -16.8 °C -18.7 °C 34347.6 hPa NW 33.6 km/h 33.6 km/h 79 % 0 mm 0.0 W/m2 CLR
02:36 -16.8 °C -18.7 °C 34347.6 hPa WNW 41.7 km/h 41.7 km/h 79 % 0 mm 0.0 W/m2 CLR
02:46 -16.8 °C -18.8 °C 34347.6 hPa NW 33.6 km/h 33.6 km/h 78 % 0 mm 0.0 W/m2 CLR
02:51 -16.8 °C -18.8 °C 34347.6 hPa NW 35.7 km/h 35.7 km/h 78 % 0 mm 0.0 W/m2 CLR
02:56 -16.8 °C -18.8 °C 34347.6 hPa WNW 29.8 km/h 29.8 km/h 78 % 0 mm 0.0 W/m2 CLR
03:01 -16.8 °C -18.7 °C 34347.6 hPa West 41.7 km/h 41.7 km/h 79 % 0 mm 0.0 W/m2 CLR
03:06 -16.8 °C -18.8 °C 34361.1 hPa NW 32.8 km/h 32.8 km/h 78 % 0 mm 0.0 W/m2 CLR
03:11 -16.8 °C -18.8 °C 34361.1 hPa NW 29.8 km/h 29.8 km/h 78 % 0 mm 0.0 W/m2 CLR
03:16 -17.2 °C -19.1 °C 34361.1 hPa WNW 35.7 km/h 35.7 km/h 78 % 0 mm 0.0 W/m2 CLR
03:21 -16.8 °C -18.8 °C 34361.1 hPa WNW 29.8 km/h 29.8 km/h 78 % 0 mm 0.0 W/m2 CLR
03:26 -16.8 °C -18.8 °C 34361.1 hPa NW 29.8 km/h 29.8 km/h 78 % 0 mm 0.0 W/m2 CLR
03:31 -17.2 °C -19.1 °C 34361.1 hPa WNW 35.7 km/h 35.7 km/h 78 % 0 mm 0.0 W/m2 CLR
03:36 -16.8 °C -18.8 °C 34361.1 hPa WNW 32.8 km/h 32.8 km/h 78 % 0 mm 0.0 W/m2 CLR
03:41 -17.2 °C -19.1 °C 34361.1 hPa NW 35.7 km/h 35.7 km/h 78 % 0 mm 0.0 W/m2 CLR
03:46 -17.2 °C -19.1 °C 34361.1 hPa WNW 35.7 km/h 35.7 km/h 78 % 0 mm 0.0 W/m2 CLR
03:51 -17.2 °C -19.1 °C 34361.1 hPa WNW 26.9 km/h 26.9 km/h 78 % 0 mm 0.0 W/m2 CLR
03:56 -17.2 °C -19.2 °C 34361.1 hPa WNW 36.2 km/h 36.2 km/h 77 % 0 mm 0.0 W/m2 CLR
04:01 -17.2 °C -19.2 °C 34361.1 hPa WNW 44.7 km/h 44.7 km/h 77 % 0 mm 0.0 W/m2 CLR
04:06 -16.8 °C -18.8 °C 34361.1 hPa WNW 41.7 km/h 41.7 km/h 78 % 0 mm 0.0 W/m2 CLR
04:11 -16.8 °C -18.8 °C 34361.1 hPa NW 41.4 km/h 41.4 km/h 77 % 0 mm 0.0 W/m2 CLR
04:16 -16.8 °C -18.8 °C 34361.1 hPa WNW 44.7 km/h 44.7 km/h 77 % 0 mm 0.0 W/m2 CLR
04:21 -16.8 °C -18.8 °C 34347.6 hPa NW 38.8 km/h 38.8 km/h 77 % 0 mm 0.0 W/m2 CLR
04:26 -16.8 °C -18.8 °C 34361.1 hPa WNW 35.7 km/h 35.7 km/h 77 % 0 mm 0.0 W/m2 CLR
04:31 -16.8 °C -18.8 °C 34347.6 hPa NW 35.7 km/h 35.7 km/h 77 % 0 mm 0.0 W/m2 CLR
04:36 -16.8 °C -18.8 °C 34361.1 hPa WNW 29.8 km/h 29.8 km/h 77 % 0 mm 0.0 W/m2 CLR
04:41 -16.8 °C -18.8 °C 34361.1 hPa WNW 44.7 km/h 44.7 km/h 77 % 0 mm 0.0 W/m2 CLR
04:46 -17.2 °C -19.2 °C 34361.1 hPa WNW 29.8 km/h 29.8 km/h 77 % 0 mm 0.0 W/m2 CLR
04:51 -17.2 °C -19.2 °C 34361.1 hPa WNW 38.8 km/h 38.8 km/h 77 % 0 mm 0.0 W/m2 CLR
04:56 -17.2 °C -19.2 °C 34361.1 hPa NW 38.8 km/h 38.8 km/h 77 % 0 mm 0.0 W/m2 CLR
05:01 -16.8 °C -18.8 °C 34361.1 hPa NW 38.8 km/h 38.8 km/h 77 % 0 mm 0.0 W/m2 CLR
05:06 -16.8 °C -18.8 °C 34361.1 hPa NW 35.7 km/h 35.7 km/h 77 % 0 mm 0.0 W/m2 CLR
05:11 -16.8 °C -18.8 °C 34361.1 hPa WNW 32.8 km/h 32.8 km/h 77 % 0 mm 0.0 W/m2 CLR
05:16 -16.8 °C -18.8 °C 34361.1 hPa NW 29.8 km/h 29.8 km/h 77 % 0 mm 0.0 W/m2 CLR
05:21 -16.8 °C -18.8 °C 34361.1 hPa NW 41.7 km/h 41.7 km/h 77 % 0 mm 0.0 W/m2 CLR
05:26 -16.8 °C -18.8 °C 34361.1 hPa NNW 29.8 km/h 29.8 km/h 77 % 0 mm 0.0 W/m2 CLR
05:31 -16.8 °C -18.8 °C 34361.1 hPa NW 32.8 km/h 32.8 km/h 77 % 0 mm 0.0 W/m2 CLR
05:36 -16.8 °C -18.8 °C 34361.1 hPa NW 35.7 km/h 35.7 km/h 77 % 0 mm 0.0 W/m2 CLR
05:41 -16.8 °C -18.8 °C 34361.1 hPa NW 33.6 km/h 33.6 km/h 77 % 0 mm 0.0 W/m2 CLR
05:46 -16.8 °C -18.8 °C 34361.1 hPa NW 44.7 km/h 44.7 km/h 77 % 0 mm 0.0 W/m2 CLR
05:51 -16.8 °C -18.8 °C 34361.1 hPa WNW 44.7 km/h 44.7 km/h 77 % 0 mm 0.0 W/m2 CLR
05:56 -16.8 °C -18.8 °C 34361.1 hPa WNW 29.8 km/h 29.8 km/h 77 % 0 mm 0.0 W/m2 CLR
06:01 -16.8 °C -18.8 °C 34371.3 hPa NW 29.8 km/h 29.8 km/h 77 % 0 mm 0.0 W/m2 CLR
06:06 -17.2 °C -19.2 °C 34371.3 hPa WNW 41.7 km/h 41.7 km/h 77 % 0 mm 0.0 W/m2 CLR
06:11 -17.2 °C -19.3 °C 34361.1 hPa WNW 50.7 km/h 50.7 km/h 76 % 0 mm 0.0 W/m2 CLR
06:16 -16.8 °C -18.9 °C 34361.1 hPa WNW 50.7 km/h 50.7 km/h 76 % 0 mm 0.0 W/m2 CLR
06:21 -16.8 °C -18.9 °C 34361.1 hPa NW 44.7 km/h 44.7 km/h 76 % 0 mm 0.0 W/m2 CLR
06:26 -16.8 °C -18.9 °C 34371.3 hPa NW 38.8 km/h 38.8 km/h 76 % 0 mm 0.0 W/m2 CLR
06:31 -16.8 °C -18.9 °C 34371.3 hPa WNW 47.6 km/h 47.6 km/h 76 % 0 mm 0.0 W/m2 CLR
06:36 -16.8 °C -18.9 °C 34371.3 hPa NW 50.7 km/h 50.7 km/h 76 % 0 mm 0.0 W/m2 CLR
06:41 -16.8 °C -18.8 °C 34371.3 hPa NW 50.7 km/h 50.7 km/h 77 % 0 mm 0.0 W/m2 CLR
06:46 -16.8 °C -18.8 °C 34371.3 hPa NW 38.8 km/h 38.8 km/h 77 % 0 mm 0.0 W/m2 CLR
06:51 -16.8 °C -18.8 °C 34371.3 hPa WNW 44.7 km/h 44.7 km/h 77 % 0 mm 0.0 W/m2 CLR
06:56 -16.8 °C -18.8 °C 34371.3 hPa WNW 50.7 km/h 50.7 km/h 77 % 0 mm 0.0 W/m2 CLR
07:01 -16.8 °C -18.8 °C 34371.3 hPa WNW 47.6 km/h 47.6 km/h 78 % 0 mm 0.0 W/m2 CLR
07:06 -16.8 °C -18.8 °C 34371.3 hPa NW 29.8 km/h 29.8 km/h 78 % 0 mm 0.0 W/m2 CLR
07:11 -16.8 °C -18.8 °C 34371.3 hPa WNW 44.7 km/h 44.7 km/h 78 % 0 mm 0.0 W/m2 CLR
07:16 -17.2 °C -19.1 °C 34384.8 hPa NW 38.8 km/h 38.8 km/h 78 % 0 mm 0.0 W/m2 CLR
07:21 -17.2 °C -19.1 °C 34384.8 hPa WNW 47.6 km/h 47.6 km/h 78 % 0 mm 0.0 W/m2 CLR
07:26 -17.2 °C -19.1 °C 34384.8 hPa NW 50.7 km/h 50.7 km/h 78 % 0 mm 0.0 W/m2 CLR
07:31 -17.2 °C -18.9 °C 34384.8 hPa NW 47.6 km/h 47.6 km/h 79 % 0 mm 0.0 W/m2 CLR
07:36 -17.2 °C -18.9 °C 34384.8 hPa WNW 38.8 km/h 38.8 km/h 79 % 0 mm 0.0 W/m2 CLR
07:41 -17.2 °C -19.1 °C 34384.8 hPa NW 47.6 km/h 47.6 km/h 78 % 0 mm 0.0 W/m2 CLR
07:46 -17.2 °C -19.1 °C 34395 hPa WNW 29.8 km/h 29.8 km/h 78 % 0 mm 0.0 W/m2 CLR
07:51 -17.4 °C -19.3 °C 34395 hPa WNW 29.8 km/h 29.8 km/h 79 % 0 mm 0.0 W/m2 CLR
07:56 -17.4 °C -19.3 °C 34395 hPa WNW 28.5 km/h 28.5 km/h 79 % 0 mm 0.0 W/m2 CLR
08:01 -17.4 °C -19.3 °C 34395 hPa WNW 35.7 km/h 35.7 km/h 79 % 0 mm 0.0 W/m2 OVC
08:06 -17.4 °C -19.2 °C 34395 hPa WNW 26.9 km/h 26.9 km/h 80 % 0 mm 5.0 W/m2 OVC
08:11 -17.4 °C -19.3 °C 34405.1 hPa NW 50.7 km/h 50.7 km/h 79 % 0 mm 7.0 W/m2 BKN
08:16 -17.4 °C -19.3 °C 34405.1 hPa WNW 26.9 km/h 26.9 km/h 79 % 0 mm 11.0 W/m2 BKN
08:21 -17.4 °C -19.3 °C 34405.1 hPa WNW 38.8 km/h 38.8 km/h 78 % 0 mm 14.0 W/m2 BKN
08:26 -17.4 °C -19.4 °C 34405.1 hPa NW 29.8 km/h 29.8 km/h 77 % 0 mm 18.0 W/m2 BKN
08:31 -17.4 °C -19.4 °C 34405.1 hPa WNW 38.8 km/h 38.8 km/h 77 % 0 mm 19.0 W/m2 BKN
08:36 -17.2 °C -19.2 °C 34405.1 hPa WNW 33.6 km/h 33.6 km/h 77 % 0 mm 25.0 W/m2 BKN
08:41 -17.2 °C -19.3 °C 34405.1 hPa WNW 35.7 km/h 35.7 km/h 76 % 0 mm 33.0 W/m2 BKN
08:46 -17.2 °C -19.3 °C 34405.1 hPa NW 38.8 km/h 38.8 km/h 76 % 0 mm 40.0 W/m2 BKN
08:51 -17.2 °C -19.3 °C 34405.1 hPa WNW 36.2 km/h 36.2 km/h 76 % 0 mm 58.0 W/m2 SCT
08:56 -16.8 °C -19.1 °C 34418.7 hPa WNW 35.7 km/h 35.7 km/h 75 % 0 mm 69.0 W/m2 FEW
09:01 -16.8 °C -19.1 °C 34418.7 hPa NW 38.8 km/h 38.8 km/h 75 % 0 mm 83.0 W/m2 FEW
09:06 -16.8 °C -19.1 °C 34418.7 hPa NW 32.8 km/h 32.8 km/h 75 % 0 mm 100.0 W/m2 FEW
09:11 -16.8 °C -19.1 °C 34418.7 hPa NW 35.7 km/h 35.7 km/h 75 % 0 mm 116.0 W/m2 CLR
09:16 -16.8 °C -19.1 °C 34418.7 hPa NW 47.6 km/h 47.6 km/h 75 % 0 mm 123.0 W/m2 CLR
09:21 -16.6 °C -18.8 °C 34418.7 hPa NW 47.6 km/h 47.6 km/h 75 % 0 mm 148.0 W/m2 CLR
09:26 -16.6 °C -18.8 °C 34418.7 hPa West 41.7 km/h 41.7 km/h 74 % 0 mm 165.0 W/m2 CLR
09:31 -16.6 °C -18.9 °C 34428.8 hPa NW 44.7 km/h 44.7 km/h 73 % 0 mm 172.0 W/m2 CLR
09:36 -16.6 °C -18.8 °C 34428.8 hPa NW 50.7 km/h 50.7 km/h 74 % 0 mm 186.0 W/m2 CLR
09:41 -16.2 °C -18.8 °C 34428.8 hPa NNW 38.8 km/h 38.8 km/h 72 % 0 mm 220.0 W/m2 CLR
09:46 -16.2 °C -18.7 °C 34428.8 hPa NW 35.7 km/h 35.7 km/h 73 % 0 mm 236.0 W/m2 CLR
09:51 -16.2 °C -18.7 °C 34428.8 hPa WNW 29.8 km/h 29.8 km/h 73 % 0 mm 253.0 W/m2 CLR
09:56 -16.2 °C -18.7 °C 34428.8 hPa NNW 47.6 km/h 47.6 km/h 73 % 0 mm 269.0 W/m2 CLR
10:01 -16.2 °C -18.8 °C 34442.4 hPa NNW 47.6 km/h 47.6 km/h 72 % 0 mm 283.0 W/m2 CLR
10:06 -15.9 °C -18.4 °C 34442.4 hPa NW 49.2 km/h 49.2 km/h 73 % 0 mm 295.0 W/m2 CLR
10:11 -15.9 °C -18.4 °C 34442.4 hPa NNW 59.5 km/h 59.5 km/h 72 % 0 mm 308.0 W/m2 CLR
10:16 -15.9 °C -18.4 °C 34442.4 hPa NW 50.7 km/h 50.7 km/h 72 % 0 mm 322.0 W/m2 CLR
10:21 -15.9 °C -18.6 °C 34452.6 hPa NW 56.6 km/h 56.6 km/h 71 % 0 mm 332.0 W/m2 CLR
10:26 -15.9 °C -18.6 °C 34442.4 hPa NW 68.6 km/h 68.6 km/h 71 % 0 mm 350.0 W/m2 CLR
10:31 -15.6 °C -18.2 °C 34452.6 hPa NNW 56.6 km/h 56.6 km/h 72 % 0 mm 362.0 W/m2 CLR
10:36 -15.6 °C -18.2 °C 34452.6 hPa NW 53.6 km/h 53.6 km/h 72 % 0 mm 373.0 W/m2 CLR
10:42 -15.6 °C -18.3 °C 34452.6 hPa North 56.6 km/h 56.6 km/h 71 % 0 mm 388.0 W/m2 CLR
10:47 -15.6 °C -18.4 °C 34462.7 hPa NNW 62.6 km/h 62.6 km/h 70 % 0 mm 401.0 W/m2 CLR
10:52 -15.3 °C -18.1 °C 34462.7 hPa NNW 74.5 km/h 74.5 km/h 70 % 0 mm 413.0 W/m2 CLR
10:57 -15.3 °C -18.1 °C 34462.7 hPa NNW 50.7 km/h 50.7 km/h 70 % 0 mm 425.0 W/m2 CLR
10:58 -15.3 °C -17.9 °C 34462.7 hPa NW 47.6 km/h 47.6 km/h 71 % 0 mm 425.0 W/m2 CLR
11:03 -15.3 °C -18.2 °C 34462.7 hPa NW 68.6 km/h 68.6 km/h 69 % 0 mm 436.0 W/m2 CLR
11:08 -15.3 °C -18.1 °C 34476.3 hPa NNW 68.6 km/h 68.6 km/h 70 % 0 mm 443.0 W/m2 CLR
11:13 -15.3 °C -18.2 °C 34476.3 hPa NNW 53.6 km/h 53.6 km/h 69 % 0 mm 457.0 W/m2 CLR
11:18 -15.3 °C -18.2 °C 34476.3 hPa North 59.5 km/h 59.5 km/h 69 % 0 mm 466.0 W/m2 CLR
11:23 -15.3 °C -18.3 °C 34476.3 hPa NW 47.6 km/h 47.6 km/h 68 % 0 mm 482.0 W/m2 CLR
11:28 -15.3 °C -18.2 °C 34476.3 hPa NNW 46.7 km/h 46.7 km/h 69 % 0 mm 487.0 W/m2 CLR
11:33 -15 °C -17.9 °C 34476.3 hPa NNW 44.7 km/h 44.7 km/h 69 % 0 mm 473.0 W/m2 CLR
11:38 -15 °C -18.1 °C 34486.4 hPa NNW 65.5 km/h 65.5 km/h 67 % 0 mm 487.0 W/m2 CLR
11:43 -15 °C -17.9 °C 34486.4 hPa NW 38.8 km/h 38.8 km/h 69 % 0 mm 490.0 W/m2 CLR
11:48 -15 °C -18.1 °C 34486.4 hPa NW 51.8 km/h 51.8 km/h 67 % 0 mm 482.0 W/m2 CLR
11:58 -14.7 °C -17.8 °C 34486.4 hPa NW 35.7 km/h 35.7 km/h 67 % 0 mm 557.0 W/m2 CLR
12:03 -14.4 °C -17.4 °C 34486.4 hPa NNW 41.7 km/h 41.7 km/h 68 % 0 mm 541.0 W/m2 CLR
12:08 -14.4 °C -17.8 °C 34496.6 hPa NW 56.6 km/h 56.6 km/h 65 % 0 mm 568.0 W/m2 CLR
12:13 -14.7 °C -17.9 °C 34496.6 hPa NW 50.7 km/h 50.7 km/h 66 % 0 mm 548.0 W/m2 CLR
12:18 -14.7 °C -18.1 °C 34496.6 hPa North 59.5 km/h 59.5 km/h 65 % 0 mm 540.0 W/m2 CLR
12:23 -14.4 °C -17.6 °C 34486.4 hPa North 47.6 km/h 47.6 km/h 67 % 0 mm 545.0 W/m2 CLR
12:28 -14.4 °C -17.4 °C 34486.4 hPa NW 41.7 km/h 41.7 km/h 68 % 0 mm 559.0 W/m2 CLR
12:33 -14.4 °C -17.7 °C 34486.4 hPa NNW 59.5 km/h 59.5 km/h 66 % 0 mm 570.0 W/m2 CLR
12:38 -14.4 °C -17.7 °C 34486.4 hPa NW 50.7 km/h 50.7 km/h 66 % 0 mm 577.0 W/m2 CLR
12:43 -14.1 °C -17.3 °C 34486.4 hPa NW 46.7 km/h 46.7 km/h 67 % 0 mm 577.0 W/m2 CLR
12:48 -14.1 °C -17.4 °C 34486.4 hPa NW 50.7 km/h 50.7 km/h 65 % 0 mm 606.0 W/m2 CLR
12:53 -14.1 °C -17.3 °C 34486.4 hPa North 41.7 km/h 41.7 km/h 66 % 0 mm 594.0 W/m2 CLR
12:58 -14.1 °C -17.3 °C 34486.4 hPa North 50.7 km/h 50.7 km/h 66 % 0 mm 617.0 W/m2 CLR
13:03 -14.1 °C -17.7 °C 34486.4 hPa North 65.5 km/h 65.5 km/h 63 % 0 mm 675.0 W/m2 CLR
13:08 -14.1 °C -17.6 °C 34486.4 hPa North 50.7 km/h 50.7 km/h 64 % 0 mm 615.0 W/m2 CLR
13:13 -14.1 °C -17.6 °C 34486.4 hPa North 44.7 km/h 44.7 km/h 64 % 0 mm 640.0 W/m2 CLR
13:19 -14.1 °C -17.6 °C 34486.4 hPa NNW 50.7 km/h 50.7 km/h 64 % 0 mm 153.0 W/m2 CLR
13:24 -14.1 °C -17.4 °C 34486.4 hPa North 53.6 km/h 53.6 km/h 65 % 0 mm 661.0 W/m2 CLR
13:29 -13.8 °C -17.3 °C 34486.4 hPa North 59.5 km/h 59.5 km/h 64 % 0 mm 664.0 W/m2 CLR
13:34 -13.8 °C -17.6 °C 34486.4 hPa North 62.6 km/h 62.6 km/h 62 % 0 mm 682.0 W/m2 CLR
13:39 -13.8 °C -17.3 °C 34486.4 hPa NNE 47.6 km/h 47.6 km/h 64 % 0 mm 684.0 W/m2 CLR
13:44 -13.4 °C -17.1 °C 34476.3 hPa NW 50.7 km/h 50.7 km/h 63 % 0 mm 724.0 W/m2 CLR
13:49 -13.4 °C -17 °C 34486.4 hPa North 44.7 km/h 44.7 km/h 64 % 0 mm 684.0 W/m2 CLR
13:54 -13.4 °C -17.1 °C 34486.4 hPa North 56.6 km/h 56.6 km/h 63 % 0 mm 255.0 W/m2 CLR
13:59 -13.8 °C -17.4 °C 34486.4 hPa North 59.5 km/h 59.5 km/h 63 % 0 mm 682.0 W/m2 CLR
14:04 -13.8 °C -17.7 °C 34486.4 hPa North 68.6 km/h 68.6 km/h 61 % 0 mm 664.0 W/m2 CLR
14:09 -13.8 °C -17.4 °C 34486.4 hPa NNW 59.5 km/h 59.5 km/h 63 % 0 mm 661.0 W/m2 CLR
14:14 -14.1 °C -17.6 °C 34486.4 hPa North 44.1 km/h 44.1 km/h 64 % 0 mm 206.0 W/m2 CLR
14:19 -14.1 °C -17.6 °C 34486.4 hPa NW 50.7 km/h 50.7 km/h 64 % 0 mm 613.0 W/m2 CLR
14:24 -13.8 °C -17.4 °C 34486.4 hPa NNW 59.5 km/h 59.5 km/h 63 % 0 mm 605.0 W/m2 CLR
14:29 -14.1 °C -17.8 °C 34476.3 hPa NW 47.6 km/h 47.6 km/h 62 % 0 mm 206.0 W/m2 CLR
14:34 -14.1 °C -17.8 °C 34476.3 hPa NNW 50.7 km/h 50.7 km/h 62 % 0 mm 148.0 W/m2 CLR
14:39 -14.1 °C -17.7 °C 34486.4 hPa NNW 38.8 km/h 38.8 km/h 63 % 0 mm 162.0 W/m2 CLR
14:44 -14.1 °C -17.7 °C 34476.3 hPa NW 53.6 km/h 53.6 km/h 63 % 0 mm 165.0 W/m2 CLR
14:49 -14.4 °C -17.9 °C 34476.3 hPa NW 51.8 km/h 51.8 km/h 64 % 0 mm 176.0 W/m2 CLR
14:54 -14.4 °C -18.2 °C 34476.3 hPa NNW 59.5 km/h 59.5 km/h 61 % 0 mm 135.0 W/m2 CLR
14:59 -14.1 °C -17.7 °C 34476.3 hPa North 51.8 km/h 51.8 km/h 63 % 0 mm 554.0 W/m2 CLR
15:04 -14.1 °C -17.7 °C 34476.3 hPa NNW 44.7 km/h 44.7 km/h 63 % 0 mm 197.0 W/m2 CLR
15:09 -14.1 °C -17.7 °C 34476.3 hPa NNW 53.6 km/h 53.6 km/h 63 % 0 mm 104.0 W/m2 CLR
15:14 -14.4 °C -18 °C 34476.3 hPa NW 50.7 km/h 50.7 km/h 63 % 0 mm 149.0 W/m2 CLR
15:19 -14.4 °C -18.1 °C 34462.7 hPa North 47.6 km/h 47.6 km/h 62 % 0 mm 134.0 W/m2 CLR
15:24 -14.1 °C -17.7 °C 34476.3 hPa North 53.6 km/h 53.6 km/h 63 % 0 mm 123.0 W/m2 CLR
15:29 -14.4 °C -18.1 °C 34476.3 hPa NNW 56.6 km/h 56.6 km/h 62 % 0 mm 171.0 W/m2 CLR
15:34 -14.4 °C -18.1 °C 34462.7 hPa NNW 29.8 km/h 29.8 km/h 62 % 0 mm 146.0 W/m2 CLR
15:39 -14.1 °C -17.6 °C 34476.3 hPa NW 38.8 km/h 38.8 km/h 64 % 0 mm 144.0 W/m2 CLR
15:44 -14.4 °C -18 °C 34476.3 hPa NW 44.7 km/h 44.7 km/h 63 % 0 mm 135.0 W/m2 CLR
15:49 -14.4 °C -18.1 °C 34476.3 hPa NNW 35.7 km/h 35.7 km/h 62 % 0 mm 100.0 W/m2 CLR
15:54 -14.4 °C -17.9 °C 34476.3 hPa NW 41.4 km/h 41.4 km/h 64 % 0 mm 139.0 W/m2 CLR
15:59 -14.4 °C -18.1 °C 34476.3 hPa NW 50.7 km/h 50.7 km/h 62 % 0 mm 70.0 W/m2 CLR
16:04 -14.7 °C -18.6 °C 34476.3 hPa NNW 38.8 km/h 38.8 km/h 61 % 0 mm 74.0 W/m2 FEW
16:09 -14.4 °C -18.1 °C 34476.3 hPa NNW 47.6 km/h 47.6 km/h 62 % 0 mm 359.0 W/m2 FEW
16:14 -14.1 °C -17.9 °C 34476.3 hPa North 62.1 km/h 62.1 km/h 61 % 0 mm 325.0 W/m2 CLR
16:19 -14.1 °C -18.1 °C 34476.3 hPa NNW 57 km/h 57 km/h 60 % 0 mm 237.0 W/m2 CLR
16:24 -14.1 °C -17.9 °C 34476.3 hPa North 59.5 km/h 59.5 km/h 61 % 0 mm 315.0 W/m2 CLR
16:29 -14.1 °C -18.1 °C 34476.3 hPa NW 56.6 km/h 56.6 km/h 60 % 0 mm 294.0 W/m2 CLR
16:34 -14.1 °C -18.1 °C 34476.3 hPa NNW 44.1 km/h 44.1 km/h 60 % 0 mm 272.0 W/m2 CLR
16:39 -14.4 °C -18.7 °C 34476.3 hPa NNW 47.6 km/h 47.6 km/h 58 % 0 mm 244.0 W/m2 CLR
16:44 -14.1 °C -18.3 °C 34476.3 hPa NW 32.8 km/h 32.8 km/h 58 % 0 mm 237.0 W/m2 CLR
16:49 -14.4 °C -18.7 °C 34476.3 hPa NNW 62.6 km/h 62.6 km/h 58 % 0 mm 213.0 W/m2 CLR
16:54 -14.4 °C -18.5 °C 34476.3 hPa NW 41.7 km/h 41.7 km/h 59 % 0 mm 197.0 W/m2 CLR
16:59 -14.4 °C -18.4 °C 34486.4 hPa NNW 50.7 km/h 50.7 km/h 60 % 0 mm 186.0 W/m2 CLR
17:04 -14.4 °C -18.4 °C 34486.4 hPa NW 47.6 km/h 47.6 km/h 60 % 0 mm 149.0 W/m2 CLR
17:09 -14.4 °C -18.2 °C 34486.4 hPa NW 44.7 km/h 47.2 km/h 61 % 0 mm 149.0 W/m2 CLR
17:14 -14.7 °C -18.6 °C 34486.4 hPa North 38.8 km/h 38.8 km/h 61 % 0 mm 130.0 W/m2 CLR
17:19 -14.7 °C -18.7 °C 34486.4 hPa NNW 50.7 km/h 50.7 km/h 60 % 0 mm 116.0 W/m2 CLR
17:25 -14.7 °C -18.4 °C 34486.4 hPa NNW 44.1 km/h 44.1 km/h 62 % 0 mm 100.0 W/m2 CLR
17:30 -14.7 °C -18.7 °C 34496.6 hPa NW 62.6 km/h 62.6 km/h 60 % 0 mm 83.0 W/m2 CLR
17:35 -15 °C -19.1 °C 34486.4 hPa NNW 62.6 km/h 62.6 km/h 59 % 0 mm 67.0 W/m2 FEW
17:40 -15 °C -18.8 °C 34496.6 hPa NNW 64.7 km/h 64.7 km/h 61 % 0 mm 54.0 W/m2 SCT
17:45 -15 °C -18.7 °C 34486.4 hPa NW 53.6 km/h 53.6 km/h 62 % 0 mm 42.0 W/m2 BKN
17:50 -15 °C -18.7 °C 34486.4 hPa NNW 53.6 km/h 53.6 km/h 62 % 0 mm 32.0 W/m2 BKN
17:55 -15 °C -18.6 °C 34496.6 hPa NNW 53.6 km/h 53.6 km/h 63 % 0 mm 25.0 W/m2 BKN
18:00 -15.3 °C -19 °C 34496.6 hPa NW 62.6 km/h 62.6 km/h 62 % 0 mm 19.0 W/m2 BKN
18:05 -15.3 °C -18.9 °C 34496.6 hPa NW 50.7 km/h 50.7 km/h 63 % 0 mm 16.0 W/m2 BKN
18:10 -15.3 °C -19 °C 34510.1 hPa NW 41.7 km/h 41.7 km/h 62 % 0 mm 12.0 W/m2 BKN
18:15 -15.3 °C -19 °C 34510.1 hPa WNW 38.8 km/h 38.8 km/h 62 % 0 mm 11.0 W/m2 BKN
18:20 -15.3 °C -18.9 °C 34510.1 hPa NNW 49.2 km/h 49.2 km/h 63 % 0 mm 7.0 W/m2 BKN
18:25 -15.6 °C -19.2 °C 34510.1 hPa NW 38.8 km/h 38.8 km/h 63 % 0 mm 5.0 W/m2 OVC
18:30 -15.6 °C -19.2 °C 34510.1 hPa NW 38.8 km/h 38.8 km/h 63 % 0 mm 0.0 W/m2 OVC
18:35 -15.6 °C -19.1 °C 34510.1 hPa NW 35.7 km/h 35.7 km/h 64 % 0 mm 0.0 W/m2 CLR
18:40 -15.6 °C -19.1 °C 34520.3 hPa WNW 41.7 km/h 41.7 km/h 64 % 0 mm 0.0 W/m2 CLR
18:45 -15.6 °C -19.1 °C 34520.3 hPa NW 38.8 km/h 38.8 km/h 64 % 0 mm 0.0 W/m2 CLR
18:50 -15.6 °C -19.1 °C 34520.3 hPa NW 50.7 km/h 50.7 km/h 64 % 0 mm 0.0 W/m2 CLR
18:55 -15.9 °C -19.3 °C 34520.3 hPa NW 35.7 km/h 35.7 km/h 64 % 0 mm 0.0 W/m2 CLR
19:00 -15.9 °C -19.3 °C 34533.8 hPa NNW 29.8 km/h 29.8 km/h 64 % 0 mm 0.0 W/m2 CLR
19:05 -15.9 °C -19.5 °C 34533.8 hPa NW 38.8 km/h 38.8 km/h 63 % 0 mm 0.0 W/m2 CLR
19:11 -15.9 °C -19.6 °C 34533.8 hPa NW 50.7 km/h 50.7 km/h 62 % 0 mm 0.0 W/m2 CLR
19:16 -15.9 °C -19.6 °C 34544 hPa NW 51.8 km/h 51.8 km/h 62 % 0 mm 0.0 W/m2 CLR
19:21 -15.9 °C -19.5 °C 34544 hPa NW 32.8 km/h 32.8 km/h 63 % 0 mm 0.0 W/m2 CLR
19:26 -15.9 °C -19.5 °C 34544 hPa NNW 41.7 km/h 41.7 km/h 63 % 0 mm 0.0 W/m2 CLR
19:31 -15.9 °C -19.5 °C 34544 hPa NNW 41.7 km/h 41.7 km/h 63 % 0 mm 0.0 W/m2 CLR
19:36 -15.9 °C -19.5 °C 34544 hPa NW 38.8 km/h 38.8 km/h 63 % 0 mm 0.0 W/m2 CLR
19:41 -15.9 °C -19.5 °C 34554.1 hPa WNW 29.8 km/h 29.8 km/h 63 % 0 mm 0.0 W/m2 CLR
19:46 -16.2 °C -19.7 °C 34544 hPa NW 44.7 km/h 44.7 km/h 64 % 0 mm 0.0 W/m2 CLR
19:51 -16.2 °C -19.7 °C 34554.1 hPa NW 50.7 km/h 50.7 km/h 64 % 0 mm 0.0 W/m2 CLR
19:56 -16.2 °C -19.7 °C 34554.1 hPa NW 33.6 km/h 33.6 km/h 64 % 0 mm 0.0 W/m2 CLR
20:01 -16.2 °C -19.6 °C 34544 hPa NW 36.2 km/h 36.2 km/h 65 % 0 mm 0.0 W/m2 CLR
20:06 -16.2 °C -19.7 °C 34544 hPa NW 38.8 km/h 38.8 km/h 64 % 0 mm 0.0 W/m2 CLR
20:11 -16.2 °C -19.6 °C 34544 hPa NW 35.7 km/h 35.7 km/h 65 % 0 mm 0.0 W/m2 CLR
20:16 -16.2 °C -19.4 °C 34544 hPa WNW 29.8 km/h 29.8 km/h 66 % 0 mm 0.0 W/m2 CLR
20:21 -16.2 °C -19.3 °C 34544 hPa WNW 35.7 km/h 35.7 km/h 67 % 0 mm 0.0 W/m2 CLR
20:26 -16.6 °C -19.6 °C 34554.1 hPa WNW 29.8 km/h 29.8 km/h 67 % 0 mm 0.0 W/m2 CLR
20:31 -16.6 °C -19.5 °C 34554.1 hPa NW 44.7 km/h 44.7 km/h 68 % 0 mm 0.0 W/m2 CLR
20:36 -16.6 °C -19.5 °C 34554.1 hPa NW 41.7 km/h 41.7 km/h 68 % 0 mm 0.0 W/m2 CLR
20:41 -16.6 °C -19.5 °C 34554.1 hPa WNW 38.8 km/h 38.8 km/h 68 % 0 mm 0.0 W/m2 CLR
20:46 -16.6 °C -19.4 °C 34554.1 hPa NW 32.8 km/h 32.8 km/h 69 % 0 mm 0.0 W/m2 CLR
20:51 -16.6 °C -19.4 °C 34554.1 hPa NW 50.7 km/h 50.7 km/h 69 % 0 mm 0.0 W/m2 CLR
20:56 -16.6 °C -19.4 °C 34554.1 hPa WNW 35.7 km/h 35.7 km/h 69 % 0 mm 0.0 W/m2 CLR
21:01 -16.6 °C -19.3 °C 34554.1 hPa WNW 29.8 km/h 29.8 km/h 70 % 0 mm 0.0 W/m2 CLR
21:06 -16.6 °C -19.3 °C 34554.1 hPa WNW 44.7 km/h 44.7 km/h 70 % 0 mm 0.0 W/m2 CLR
21:11 -16.6 °C -19.3 °C 34554.1 hPa WNW 32.8 km/h 32.8 km/h 70 % 0 mm 0.0 W/m2 CLR
21:16 -16.6 °C -19.2 °C 34554.1 hPa WNW 33.6 km/h 33.6 km/h 71 % 0 mm 0.0 W/m2 CLR
21:21 -16.6 °C -19.2 °C 34554.1 hPa NW 38.8 km/h 38.8 km/h 71 % 0 mm 0.0 W/m2 CLR
21:26 -16.6 °C -19.2 °C 34554.1 hPa NW 29.8 km/h 29.8 km/h 71 % 0 mm 0.0 W/m2 CLR
21:31 -16.6 °C -19.1 °C 34567.7 hPa WNW 29.8 km/h 29.8 km/h 72 % 0 mm 0.0 W/m2 CLR
21:36 -16.8 °C -19.3 °C 34567.7 hPa WNW 31.1 km/h 31.1 km/h 72 % 0 mm 0.0 W/m2 CLR
21:41 -16.8 °C -19.3 °C 34567.7 hPa West 29.8 km/h 29.8 km/h 72 % 0 mm 0.0 W/m2 CLR
21:46 -16.8 °C -19.3 °C 34567.7 hPa NW 31.1 km/h 31.1 km/h 72 % 0 mm 0.0 W/m2 CLR
21:51 -16.8 °C -19.3 °C 34567.7 hPa WNW 29.8 km/h 29.8 km/h 73 % 0 mm 0.0 W/m2 CLR
21:56 -16.8 °C -19.3 °C 34567.7 hPa WNW 29.8 km/h 29.8 km/h 73 % 0 mm 0.0 W/m2 CLR
22:01 -16.8 °C -19.3 °C 34567.7 hPa WNW 41.7 km/h 41.7 km/h 73 % 0 mm 0.0 W/m2 CLR
22:06 -16.8 °C -19.3 °C 34567.7 hPa WNW 32.8 km/h 32.8 km/h 73 % 0 mm 0.0 W/m2 CLR
22:11 -17.2 °C -19.6 °C 34567.7 hPa NW 29.8 km/h 29.8 km/h 73 % 0 mm 0.0 W/m2 CLR
22:16 -16.8 °C -19.3 °C 34567.7 hPa NW 38.8 km/h 38.8 km/h 73 % 0 mm 0.0 W/m2 CLR
22:22 -16.8 °C -19.2 °C 34567.7 hPa NW 35.7 km/h 35.7 km/h 74 % 0 mm 0.0 W/m2 CLR
22:27 -16.8 °C -19.2 °C 34567.7 hPa NW 32.8 km/h 32.8 km/h 74 % 0 mm 0.0 W/m2 CLR
22:32 -16.8 °C -19.2 °C 34577.8 hPa NW 32.8 km/h 32.8 km/h 74 % 0 mm 0.0 W/m2 CLR
22:37 -16.8 °C -19.2 °C 34577.8 hPa WNW 35.7 km/h 35.7 km/h 74 % 0 mm 0.0 W/m2 CLR
22:42 -16.8 °C -19.2 °C 34577.8 hPa WNW 38.8 km/h 38.8 km/h 74 % 0 mm 0.0 W/m2 CLR
22:47 -16.8 °C -19.2 °C 34567.7 hPa NW 32.8 km/h 32.8 km/h 74 % 0 mm 0.0 W/m2 CLR
22:52 -16.8 °C -19.2 °C 34567.7 hPa NW 32.8 km/h 32.8 km/h 74 % 0 mm 0.0 W/m2 CLR
22:57 -16.8 °C -19.1 °C 34567.7 hPa NNW 29.8 km/h 29.8 km/h 75 % 0 mm 0.0 W/m2 CLR
23:02 -16.8 °C -19.1 °C 34567.7 hPa NW 32.8 km/h 32.8 km/h 75 % 0 mm 0.0 W/m2 CLR
23:07 -16.8 °C -19.1 °C 34577.8 hPa WNW 38.8 km/h 38.8 km/h 75 % 0 mm 0.0 W/m2 CLR
23:12 -16.8 °C -19.1 °C 34567.7 hPa NW 35.7 km/h 35.7 km/h 75 % 0 mm 0.0 W/m2 CLR
23:17 -16.8 °C -19.1 °C 34577.8 hPa NW 35.7 km/h 35.7 km/h 75 % 0 mm 0.0 W/m2 CLR
23:22 -16.8 °C -19.1 °C 34577.8 hPa NW 35.7 km/h 35.7 km/h 75 % 0 mm 0.0 W/m2 CLR
23:27 -16.8 °C -19.2 °C 34577.8 hPa WNW 29.8 km/h 29.8 km/h 74 % 0 mm 0.0 W/m2 CLR
23:32 -16.8 °C -19.1 °C 34577.8 hPa NW 32.8 km/h 32.8 km/h 75 % 0 mm 0.0 W/m2 CLR
23:37 -16.8 °C -19.1 °C 34577.8 hPa NW 32.8 km/h 32.8 km/h 75 % 0 mm 0.0 W/m2 CLR
23:42 -16.8 °C -19.1 °C 34577.8 hPa NW 51.8 km/h 51.8 km/h 75 % 0 mm 0.0 W/m2 CLR
23:47 -16.8 °C -19.1 °C 34591.4 hPa NW 29.8 km/h 29.8 km/h 75 % 0 mm 0.0 W/m2 CLR
23:52 -16.8 °C -19.1 °C 34591.4 hPa NW 35.7 km/h 35.7 km/h 75 % 0 mm 0.0 W/m2 CLR
23:57 -16.8 °C -18.9 °C 34591.4 hPa NW 26.9 km/h 26.9 km/h 76 % 0 mm 0.0 W/m2 CLR
Lo Temps de Massalio
Compliments of Weather Underground - 1.25 mb